Pennville, Pennsylvania
Current Conditions -  °F | °C
As of 3:53 AM on Saturday 29 Nov 2014 (Local Time) from KTHV Reporting Station
Overcast Overcast  
Wind Chill: 21°   Ceiling: 7000
Heat Index: 21°   Visibility: 10mi
Dew Point: 18°   Wind: 0mph
Humidity: 88%   Direction: NA
Pressure: 30.29"   Gusts: NA
Location:  39.7863°N, 76.988°W
Report Text: KTHV 290853Z AUTO 00000KT 10SM OVC070 M06/M08 A3029 RMK AO2 SLP267 T10611078 51006
Loading
Personal Weather Stations






























Interactive Weather Map New forecast layout! Learn more

10-Day Weather Forecast

Advertisements
Track Severe Weather on mobile